Time;durP1;ratioP1;P1;durP2;ratioP2;P2;SDS_P1;SDS_P2;PMS_P1;PMS_P2;Temp;Humidity;BMP_temperature;BMP_pressure;BME280_temperature;BME280_humidity;BME280_pressure;Samples;Min_cycle;Max_cycle;Signal;HPM_P1;HPM_P2
2022/12/07 00:01:30;;;;;;;7.33;2.10;;;25.70;44.60;;;;;;5031843;28;20188;-68
2022/12/07 00:04:06;;;;;;;10.90;2.90;;;25.80;49.90;;;;;;5032179;28;20173;-67
2022/12/07 00:06:36;;;;;;;9.93;3.47;;;25.50;53.40;;;;;;5039649;28;20190;-68
2022/12/07 00:09:05;;;;;;;11.77;3.57;;;25.40;54.60;;;;;;5038089;28;20232;-68
2022/12/07 00:11:33;;;;;;;14.93;3.33;;;25.30;56.90;;;;;;5038211;28;20658;-68
2022/12/07 00:14:04;;;;;;;14.50;4.00;;;25.40;57.60;;;;;;5032240;28;20193;-67
2022/12/07 00:16:33;;;;;;;13.87;3.53;;;25.90;57.30;;;;;;5050969;28;20191;-68
2022/12/07 00:19:02;;;;;;;19.13;3.70;;;26.00;56.80;;;;;;5051693;28;20172;-68
2022/12/07 00:21:31;;;;;;;10.47;3.23;;;25.70;57.30;;;;;;5050102;28;20168;-69
2022/12/07 00:23:59;;;;;;;11.77;3.13;;;25.50;57.60;;;;;;5051454;28;20171;-67
2022/12/07 00:26:31;;;;;;;9.07;2.90;;;25.70;56.40;;;;;;5040495;28;20701;-68
2022/12/07 00:29:04;;;;;;;11.83;3.10;;;25.60;55.50;;;;;;5032278;28;20212;-69
2022/12/07 00:31:38;;;;;;;15.40;3.40;;;26.00;56.80;;;;;;5042795;28;20164;-68
2022/12/07 00:34:07;;;;;;;9.73;3.10;;;26.30;54.00;;;;;;5049362;28;20245;-68
2022/12/07 00:36:35;;;;;;;14.57;3.97;;;26.20;56.50;;;;;;5052899;28;20195;-68
2022/12/07 00:39:03;;;;;;;11.90;3.20;;;26.10;57.30;;;;;;5033789;28;20251;-68
2022/12/07 00:41:31;;;;;;;15.77;4.13;;;26.30;57.20;;;;;;5041798;28;20208;-69
2022/12/07 00:43:58;;;;;;;11.03;3.90;;;26.30;56.50;;;;;;5030027;28;20173;-68
2022/12/07 00:46:27;;;;;;;21.07;4.33;;;26.40;56.10;;;;;;5031848;28;20200;-68
2022/12/07 00:48:55;;;;;;;16.80;4.17;;;26.80;56.10;;;;;;5040665;28;20323;-69
2022/12/07 00:51:24;;;;;;;20.33;3.80;;;27.00;55.40;;;;;;5037222;28;20195;-69
2022/12/07 00:53:52;;;;;;;15.00;3.67;;;27.00;55.40;;;;;;5036007;28;20188;-69
2022/12/07 00:56:22;;;;;;;10.53;3.30;;;26.80;53.60;;;;;;5034300;28;20532;-69
2022/12/07 00:59:00;;;;;;;14.53;3.23;;;26.50;50.70;;;;;;5039007;28;20592;-69
2022/12/07 01:01:30;;;;;;;14.83;3.07;;;26.40;53.90;;;;;;5050727;28;20623;-69
2022/12/07 01:03:58;;;;;;;15.40;3.50;;;26.40;53.80;;;;;;5049396;28;20191;-69
2022/12/07 01:06:26;;;;;;;16.57;3.90;;;26.40;55.40;;;;;;5034175;28;20180;-69
2022/12/07 01:08:54;;;;;;;10.50;3.30;;;26.30;57.10;;;;;;5035157;28;20722;-69
2022/12/07 01:11:24;;;;;;;14.53;3.80;;;26.00;56.10;;;;;;5034647;28;20187;-68
2022/12/07 01:13:54;;;;;;;16.87;3.00;;;25.80;56.10;;;;;;5034826;28;20176;-69
2022/12/07 01:16:22;;;;;;;7.57;2.57;;;25.90;55.90;;;;;;5035959;28;20477;-69
2022/12/07 01:18:52;;;;;;;11.23;3.00;;;25.80;54.80;;;;;;5035195;28;20180;-68
2022/12/07 01:21:24;;;;;;;19.63;8.30;;;25.70;55.80;;;;;;5038789;28;20685;-69
2022/12/07 01:23:53;;;;;;;14.40;4.43;;;25.80;57.10;;;;;;5035435;28;20200;-69
2022/12/07 01:26:24;;;;;;;12.70;3.70;;;25.80;57.90;;;;;;5035010;28;20170;-69
2022/12/07 01:28:54;;;;;;;10.47;4.17;;;25.60;58.50;;;;;;5041399;28;20200;-69
2022/12/07 01:31:26;;;;;;;13.20;3.37;;;25.50;58.80;;;;;;5036344;28;20188;-69
2022/12/07 01:33:56;;;;;;;12.83;3.87;;;25.40;59.40;;;;;;5035652;28;20188;-69
2022/12/07 01:36:33;;;;;;;14.17;4.07;;;25.30;59.30;;;;;;5035623;28;20223;-69
2022/12/07 01:39:03;;;;;;;15.37;4.10;;;25.50;59.90;;;;;;5033968;28;20231;-68
2022/12/07 01:41:34;;;;;;;11.53;3.70;;;25.30;59.80;;;;;;5038457;28;20189;-68
2022/12/07 01:44:26;;;;;;;11.90;3.87;;;25.30;60.40;;;;;;5037627;28;20188;-68
2022/12/07 01:47:01;;;;;;;10.43;3.23;;;25.30;60.00;;;;;;5034063;28;20271;-68
2022/12/07 01:49:35;;;;;;;12.07;3.50;;;25.20;59.20;;;;;;5036184;28;20235;-68
2022/12/07 01:52:25;;;;;;;11.10;3.50;;;25.20;59.00;;;;;;5038824;28;20184;-69
2022/12/07 01:54:58;;;;;;;15.13;3.57;;;25.30;58.30;;;;;;5040488;28;20176;-67
2022/12/07 01:57:26;;;;;;;12.97;3.37;;;25.30;58.50;;;;;;5049979;28;20172;-69
2022/12/07 01:59:56;;;;;;;12.87;3.70;;;25.30;58.70;;;;;;5050481;28;20187;-68
2022/12/07 02:02:34;;;;;;;15.20;3.80;;;25.40;58.50;;;;;;5046817;28;20183;-69
2022/12/07 02:05:05;;;;;;;15.27;4.33;;;25.40;59.30;;;;;;5042114;28;20584;-67
2022/12/07 02:07:36;;;;;;;10.70;3.43;;;25.40;59.00;;;;;;5042052;28;20203;-68
2022/12/07 02:10:22;;;;;;;15.43;3.73;;;25.40;57.90;;;;;;5036071;28;20184;-68
2022/12/07 02:13:12;;;;;;;15.87;4.10;;;25.40;59.20;;;;;;5034540;28;20182;-68
2022/12/07 02:16:01;;;;;;;13.23;5.10;;;25.60;58.60;;;;;;5043490;28;20260;-68
2022/12/07 02:18:40;;;;;;;14.10;4.20;;;25.60;58.20;;;;;;5033197;28;20662;-68
2022/12/07 02:21:32;;;;;;;13.77;4.73;;;25.70;57.90;;;;;;5034043;28;20571;-68
2022/12/07 02:24:39;;;;;;;11.57;3.60;;;25.80;58.10;;;;;;5037305;28;20222;-69
2022/12/07 02:27:09;;;;;;;14.27;4.23;;;25.90;56.80;;;;;;5038647;28;20168;-68
2022/12/07 02:29:42;;;;;;;14.40;4.60;;;25.80;57.70;;;;;;5039452;28;20211;-68
2022/12/07 02:32:16;;;;;;;14.77;4.70;;;25.90;57.20;;;;;;5045569;28;20176;-68
2022/12/07 02:34:56;;;;;;;15.47;4.93;;;26.00;57.20;;;;;;5039409;28;20187;-69
2022/12/07 02:37:55;;;;;;;17.07;5.53;;;26.00;57.80;;;;;;5033900;28;20188;-69
2022/12/07 02:40:35;;;;;;;17.37;5.23;;;26.00;58.00;;;;;;5033171;28;20239;-68
2022/12/07 02:43:22;;;;;;;23.33;10.60;;;25.90;58.00;;;;;;5034132;28;20207;-67
2022/12/07 02:45:53;;;;;;;20.63;11.47;;;25.90;58.00;;;;;;5033748;28;20267;-68
2022/12/07 02:48:21;;;;;;;15.97;6.43;;;25.90;58.40;;;;;;5035565;28;20343;-68
2022/12/07 02:50:53;;;;;;;20.03;8.33;;;25.90;57.80;;;;;;5033619;28;20673;-68
2022/12/07 02:53:32;;;;;;;13.17;5.33;;;25.80;59.10;;;;;;5038834;28;20186;-68
2022/12/07 02:56:07;;;;;;;16.70;5.47;;;25.90;58.50;;;;;;5036143;28;20192;-68
2022/12/07 02:58:51;;;;;;;15.03;4.67;;;25.80;57.90;;;;;;5036680;28;20252;-67
2022/12/07 03:01:41;;;;;;;19.93;5.87;;;25.80;57.90;;;;;;5039590;28;20195;-67
2022/12/07 03:04:31;;;;;;;15.77;4.67;;;25.80;58.30;;;;;;5056814;28;20188;-69
2022/12/07 03:07:07;;;;;;;14.13;3.90;;;25.80;57.60;;;;;;5040702;28;20176;-68
2022/12/07 03:10:36;;;;;;;21.20;5.17;;;25.70;57.20;;;;;;5046779;28;20534;-68
2022/12/07 03:13:06;;;;;;;16.50;4.90;;;25.60;58.20;;;;;;5026462;28;20188;-68
2022/12/07 03:16:09;;;;;;;15.67;5.77;;;25.40;58.70;;;;;;5027965;28;20620;-68
2022/12/07 03:19:06;;;;;;;16.53;5.17;;;25.30;59.40;;;;;;5011252;28;20238;-68
2022/12/07 03:21:43;;;;;;;16.97;5.03;;;25.40;60.00;;;;;;5033157;28;20227;-68
2022/12/07 03:24:17;;;;;;;19.67;4.97;;;25.50;59.80;;;;;;5031534;28;20665;-67
2022/12/07 03:26:56;;;;;;;23.23;6.50;;;25.60;59.40;;;;;;5034144;28;20214;-68
2022/12/07 03:29:29;;;;;;;19.77;5.17;;;25.70;59.20;;;;;;5033827;28;20234;-68
2022/12/07 03:32:23;;;;;;;17.07;5.27;;;25.70;59.40;;;;;;5033157;28;20184;-69
2022/12/07 03:35:16;;;;;;;14.67;5.80;;;25.60;59.70;;;;;;5035235;28;20255;-67
2022/12/07 03:37:53;;;;;;;22.97;5.30;;;25.60;59.90;;;;;;5034597;28;20257;-67
2022/12/07 03:41:00;;;;;;;12.93;5.00;;;25.70;60.00;;;;;;5043214;28;20180;-67
2022/12/07 03:43:30;;;;;;;18.83;5.20;;;25.70;59.80;;;;;;5054987;28;20522;-68
2022/12/07 03:46:30;;;;;;;13.87;5.23;;;25.70;59.90;;;;;;5047031;28;20283;-69
2022/12/07 03:49:19;;;;;;;13.60;4.03;;;25.80;59.60;;;;;;5012396;28;20837;-68
2022/12/07 03:52:04;;;;;;;12.40;4.60;;;25.80;59.70;;;;;;5032335;28;20183;-69
2022/12/07 03:54:39;;;;;;;14.30;3.80;;;25.90;59.60;;;;;;5034661;28;20188;-68
2022/12/07 03:57:07;;;;;;;16.80;4.77;;;25.80;59.40;;;;;;5031300;28;20542;-68
2022/12/07 03:59:36;;;;;;;10.27;4.50;;;26.00;59.00;;;;;;5041614;28;20222;-68
2022/12/07 04:02:05;;;;;;;13.63;4.93;;;26.10;58.60;;;;;;5046111;28;20187;-68
2022/12/07 04:04:34;;;;;;;15.13;4.77;;;26.10;57.70;;;;;;5049187;28;20184;-68
2022/12/07 04:07:02;;;;;;;16.17;4.37;;;26.00;58.00;;;;;;5035174;28;20184;-68
2022/12/07 04:09:29;;;;;;;21.43;4.40;;;25.80;58.10;;;;;;5032158;28;20220;-68
2022/12/07 04:11:56;;;;;;;20.73;3.70;;;25.70;57.70;;;;;;5034982;28;20165;-68
2022/12/07 04:14:24;;;;;;;14.40;3.47;;;25.40;57.10;;;;;;5031732;28;20188;-69
2022/12/07 04:16:53;;;;;;;20.20;4.33;;;25.40;55.30;;;;;;5037358;28;20176;-70
2022/12/07 04:19:23;;;;;;;12.63;4.40;;;25.30;56.60;;;;;;5046076;28;20183;-67
2022/12/07 04:21:50;;;;;;;15.00;3.90;;;25.30;56.90;;;;;;5039656;28;20177;-68
2022/12/07 04:24:18;;;;;;;11.97;3.30;;;25.30;55.90;;;;;;5032499;28;20176;-69
2022/12/07 04:26:46;;;;;;;8.83;2.17;;;25.40;50.30;;;;;;5031838;28;20184;-68
2022/12/07 04:29:14;;;;;;;7.20;1.97;;;25.60;44.10;;;;;;5038161;28;20219;-68
2022/12/07 04:31:42;;;;;;;8.57;1.30;;;25.90;39.20;;;;;;5039355;28;20700;-68
2022/12/07 04:34:10;;;;;;;4.63;1.00;;;26.10;35.80;;;;;;5034292;28;20217;-70
2022/12/07 04:36:38;;;;;;;3.33;0.90;;;26.30;32.60;;;;;;5042709;28;20231;-69
2022/12/07 04:39:07;;;;;;;1.60;1.03;;;26.40;30.90;;;;;;5039604;28;20225;-67
2022/12/07 04:41:35;;;;;;;6.00;0.70;;;26.50;30.70;;;;;;5052526;28;20176;-67
2022/12/07 04:44:07;;;;;;;6.67;1.20;;;26.60;25.90;;;;;;5049535;28;20532;-68
2022/12/07 04:46:34;;;;;;;2.60;0.70;;;26.60;26.10;;;;;;5052339;28;20930;-67
2022/12/07 04:49:02;;;;;;;1.93;0.77;;;26.70;25.70;;;;;;5050988;28;20736;-68
2022/12/07 04:51:30;;;;;;;6.00;1.00;;;26.70;25.60;;;;;;5052156;28;20178;-68
2022/12/07 04:53:58;;;;;;;3.10;0.77;;;26.80;24.90;;;;;;5053179;28;20188;-67
2022/12/07 04:56:26;;;;;;;2.53;0.83;;;26.90;23.50;;;;;;5052296;28;20230;-69
2022/12/07 04:58:54;;;;;;;2.40;0.70;;;26.90;22.40;;;;;;5052218;28;20266;-67
2022/12/07 05:01:23;;;;;;;5.80;0.93;;;26.90;21.90;;;;;;5053595;28;20180;-68
2022/12/07 05:03:51;;;;;;;3.03;0.97;;;26.90;21.60;;;;;;5050444;28;20184;-67
2022/12/07 05:06:18;;;;;;;6.40;0.70;;;26.90;21.50;;;;;;5043707;28;20212;-68
2022/12/07 05:08:46;;;;;;;2.60;1.00;;;27.00;21.40;;;;;;5042746;28;20299;-69
2022/12/07 05:14:18;;;;;;;1.77;0.80;;;27.10;22.50;;;;;;5048095;28;20229;-67
2022/12/07 05:16:49;;;;;;;6.23;0.80;;;27.00;23.00;;;;;;5040289;28;20182;-68
2022/12/07 05:19:18;;;;;;;3.43;1.10;;;26.90;23.40;;;;;;5049094;28;20184;-67
2022/12/07 05:21:45;;;;;;;4.13;0.77;;;26.80;23.20;;;;;;5045606;28;20204;-68
2022/12/07 05:24:15;;;;;;;2.27;0.93;;;26.70;23.40;;;;;;5050621;28;20685;-67
2022/12/07 05:26:43;;;;;;;3.37;0.80;;;26.60;23.70;;;;;;5040330;28;20196;-67
2022/12/07 05:29:16;;;;;;;1.93;1.03;;;26.50;23.60;;;;;;5051840;28;20215;-70
2022/12/07 05:31:44;;;;;;;2.43;0.83;;;26.50;24.20;;;;;;5043699;28;20194;-67
2022/12/07 05:34:12;;;;;;;2.23;1.00;;;26.40;24.40;;;;;;5053120;28;20546;-67
2022/12/07 05:36:39;;;;;;;1.07;0.90;;;26.40;23.80;;;;;;5052550;28;20278;-68
2022/12/07 05:39:07;;;;;;;3.83;0.83;;;26.30;24.40;;;;;;5052480;28;20183;-70
2022/12/07 05:44:19;;;;;;;1.47;0.80;;;26.30;24.60;;;;;;5045187;28;20241;-69
2022/12/07 05:46:47;;;;;;;2.60;0.80;;;26.30;24.80;;;;;;5045003;28;20176;-70
2022/12/07 05:49:14;;;;;;;3.83;1.00;;;26.30;24.70;;;;;;5046894;28;20260;-70
2022/12/07 05:51:42;;;;;;;4.70;1.17;;;26.20;25.30;;;;;;5046237;28;20246;-68
2022/12/07 05:54:09;;;;;;;3.87;1.03;;;26.10;25.60;;;;;;5051381;28;20184;-68
2022/12/07 05:56:37;;;;;;;4.57;1.10;;;26.00;25.60;;;;;;5053331;28;20255;-67
2022/12/07 05:59:22;;;;;;;5.47;1.07;;;26.00;26.20;;;;;;5053522;28;20183;-69
2022/12/07 06:01:55;;;;;;;6.37;1.17;;;26.00;26.10;;;;;;5045288;28;20183;-68
2022/12/07 06:04:24;;;;;;;2.67;0.87;;;25.90;26.60;;;;;;5047831;28;20225;-73
2022/12/07 06:06:52;;;;;;;8.10;0.77;;;25.90;26.30;;;;;;5048269;28;20563;-72
2022/12/07 06:09:21;;;;;;;6.13;0.90;;;25.90;26.20;;;;;;5047150;28;20211;-71
2022/12/07 06:14:34;;;;;;;6.63;1.10;;;25.90;26.90;;;;;;5047694;28;20241;-69
2022/12/07 06:17:01;;;;;;;3.60;0.90;;;25.80;27.10;;;;;;5050269;28;20183;-69
2022/12/07 06:19:29;;;;;;;3.27;1.07;;;25.80;27.60;;;;;;5040269;28;20184;-69
2022/12/07 06:21:57;;;;;;;2.57;1.00;;;25.70;27.60;;;;;;5045291;28;20183;-68
2022/12/07 06:24:25;;;;;;;2.33;1.10;;;25.60;28.10;;;;;;5048711;28;20186;-69
2022/12/07 06:26:52;;;;;;;2.10;0.90;;;25.60;28.50;;;;;;5043198;28;20184;-67
2022/12/07 06:29:20;;;;;;;3.53;1.20;;;25.60;28.40;;;;;;5048431;28;20216;-68
2022/12/07 06:31:47;;;;;;;2.97;1.07;;;25.50;28.80;;;;;;5045981;28;20183;-68
2022/12/07 06:34:19;;;;;;;3.30;1.13;;;25.50;29.70;;;;;;5050897;28;20187;-68
2022/12/07 06:36:51;;;;;;;2.03;1.00;;;25.40;31.90;;;;;;5044666;28;20173;-69
2022/12/07 06:39:24;;;;;;;4.73;1.40;;;25.30;33.30;;;;;;5046237;28;20555;-68
2022/12/07 06:41:53;;;;;;;5.30;1.10;;;25.20;34.10;;;;;;5049812;28;20171;-67
2022/12/07 06:44:21;;;;;;;4.23;1.10;;;25.30;34.40;;;;;;5042235;28;20544;-67
2022/12/07 06:46:50;;;;;;;4.30;1.03;;;25.30;34.50;;;;;;5047687;28;20605;-67
2022/12/07 06:49:18;;;;;;;3.43;1.13;;;25.30;34.90;;;;;;5051901;28;20694;-68
2022/12/07 06:51:45;;;;;;;2.27;1.00;;;25.30;35.40;;;;;;5046935;28;20177;-67
2022/12/07 06:54:15;;;;;;;2.40;1.03;;;25.30;35.60;;;;;;5051675;28;20618;-67
2022/12/07 06:56:43;;;;;;;5.27;0.90;;;25.10;36.30;;;;;;5050746;28;20182;-68
2022/12/07 06:59:10;;;;;;;4.60;0.90;;;25.00;36.70;;;;;;5049409;28;20173;-68
2022/12/07 07:01:38;;;;;;;3.67;0.80;;;25.00;37.10;;;;;;5049639;28;20184;-66
2022/12/07 07:04:06;;;;;;;3.87;1.03;;;24.90;37.30;;;;;;5042618;28;20182;-68
2022/12/07 07:06:33;;;;;;;3.47;1.07;;;24.80;37.40;;;;;;5042200;28;20290;-68
2022/12/07 07:09:01;;;;;;;5.40;1.13;;;24.80;37.70;;;;;;5049262;28;20243;-68
2022/12/07 07:11:28;;;;;;;4.27;1.13;;;24.80;37.80;;;;;;5049992;28;20209;-69
2022/12/07 07:13:58;;;;;;;3.13;0.90;;;24.80;38.10;;;;;;5039448;28;20180;-68
2022/12/07 07:16:25;;;;;;;3.93;0.90;;;24.70;38.60;;;;;;5051608;28;20266;-68
2022/12/07 07:18:53;;;;;;;3.23;1.00;;;24.60;38.90;;;;;;5052340;28;20203;-69
2022/12/07 07:21:20;;;;;;;5.90;1.20;;;24.60;39.10;;;;;;5043111;28;20176;-68
2022/12/07 07:23:47;;;;;;;7.43;1.10;;;24.50;39.70;;;;;;5051407;28;20539;-68
2022/12/07 07:26:15;;;;;;;1.43;0.70;;;24.50;39.90;;;;;;5048965;28;20180;-67
2022/12/07 07:28:42;;;;;;;1.50;0.73;;;24.40;40.00;;;;;;5036378;28;20211;-69
2022/12/07 07:31:10;;;;;;;2.73;1.00;;;24.40;40.40;;;;;;5048054;28;20192;-68
2022/12/07 07:33:37;;;;;;;1.40;0.80;;;24.30;40.50;;;;;;5038385;28;20172;-69
2022/12/07 07:36:05;;;;;;;0.97;0.70;;;24.30;40.90;;;;;;5047759;28;20226;-70
2022/12/07 07:38:32;;;;;;;1.97;0.70;;;24.30;41.40;;;;;;5033162;28;20195;-68
2022/12/07 07:40:59;;;;;;;7.07;1.57;;;24.20;41.70;;;;;;5032828;28;20173;-68
2022/12/07 07:43:27;;;;;;;2.47;0.70;;;24.30;42.10;;;;;;5049114;28;20182;-69
2022/12/07 07:45:54;;;;;;;1.83;0.90;;;24.20;42.20;;;;;;5051959;28;20192;-71
2022/12/07 07:48:24;;;;;;;2.93;0.90;;;24.20;42.40;;;;;;5042243;28;20236;-67
2022/12/07 07:50:52;;;;;;;1.20;0.70;;;24.10;42.70;;;;;;5034767;28;20207;-70
2022/12/07 07:53:19;;;;;;;3.27;0.90;;;24.10;43.00;;;;;;5032056;28;20283;-68
2022/12/07 07:55:54;;;;;;;1.23;0.70;;;24.00;43.30;;;;;;5035550;28;20234;-70
2022/12/07 07:58:22;;;;;;;1.20;0.70;;;24.00;43.40;;;;;;5033643;28;20186;-67
2022/12/07 08:00:49;;;;;;;4.73;0.83;;;24.00;43.10;;;;;;5041751;28;20176;-68
2022/12/07 08:03:17;;;;;;;1.67;0.90;;;24.00;43.80;;;;;;5048911;28;20184;-69
2022/12/07 08:05:44;;;;;;;1.23;0.70;;;23.90;44.10;;;;;;5049142;28;20602;-70
2022/12/07 08:08:12;;;;;;;1.10;0.50;;;23.80;44.20;;;;;;5051748;28;20207;-70
2022/12/07 08:10:40;;;;;;;1.13;0.70;;;23.80;44.00;;;;;;5048284;28;20267;-69
2022/12/07 08:13:16;;;;;;;2.20;0.87;;;23.80;44.40;;;;;;5037263;28;20224;-70
2022/12/07 08:15:46;;;;;;;1.03;0.63;;;23.80;44.20;;;;;;5049954;28;20228;-69
2022/12/07 08:18:15;;;;;;;4.00;1.50;;;23.80;44.30;;;;;;5046569;28;20188;-69
2022/12/07 08:20:42;;;;;;;2.80;0.70;;;23.80;44.40;;;;;;5044873;28;20172;-70
2022/12/07 08:23:11;;;;;;;3.20;1.00;;;23.80;44.40;;;;;;5043527;28;20184;-69
2022/12/07 08:25:39;;;;;;;1.63;0.97;;;23.80;44.50;;;;;;5049452;28;20183;-68
2022/12/07 08:28:07;;;;;;;2.27;1.10;;;23.80;44.60;;;;;;5067686;28;20204;-69
2022/12/07 08:30:34;;;;;;;1.40;0.90;;;23.80;44.90;;;;;;5049698;28;20208;-69
2022/12/07 08:33:02;;;;;;;1.83;0.87;;;23.80;45.10;;;;;;5038582;28;20267;-69
2022/12/07 08:35:29;;;;;;;1.23;0.83;;;23.70;45.20;;;;;;5038096;28;20177;-69
2022/12/07 08:37:57;;;;;;;2.03;0.90;;;23.70;45.10;;;;;;5038616;28;20181;-67
2022/12/07 08:40:25;;;;;;;4.27;0.80;;;23.60;45.50;;;;;;5039173;28;20184;-66
2022/12/07 08:42:52;;;;;;;1.00;0.63;;;23.60;45.70;;;;;;5038155;28;20176;-69
2022/12/07 08:45:21;;;;;;;1.33;0.67;;;23.60;45.60;;;;;;5048268;28;20184;-71
2022/12/07 08:47:59;;;;;;;1.40;0.57;;;23.60;45.50;;;;;;5047574;28;20269;-71
2022/12/07 08:50:26;;;;;;;0.87;0.50;;;23.60;45.30;;;;;;5039237;28;20180;-69
2022/12/07 08:52:56;;;;;;;2.57;0.60;;;23.60;45.20;;;;;;5038787;28;20189;-68
2022/12/07 08:55:25;;;;;;;3.90;0.60;;;23.60;45.50;;;;;;5042630;28;20663;-69
2022/12/07 08:57:53;;;;;;;1.70;0.50;;;23.60;45.50;;;;;;5037969;28;20665;-70
2022/12/07 09:00:20;;;;;;;0.90;0.63;;;23.50;45.60;;;;;;5045356;28;20248;-70
2022/12/07 09:02:48;;;;;;;1.50;0.60;;;23.50;45.50;;;;;;5050391;28;20219;-70
2022/12/07 09:05:15;;;;;;;1.23;0.80;;;23.40;45.80;;;;;;5044303;28;20233;-68
2022/12/07 09:07:46;;;;;;;2.10;0.63;;;23.40;46.00;;;;;;5038601;28;20172;-68
2022/12/07 09:10:13;;;;;;;2.40;0.60;;;23.40;46.40;;;;;;5038675;28;20172;-68
2022/12/07 09:12:41;;;;;;;2.20;0.63;;;23.30;46.50;;;;;;5038457;28;20582;-69
2022/12/07 09:15:09;;;;;;;4.13;1.20;;;23.30;46.90;;;;;;5054665;28;20176;-68
2022/12/07 09:17:37;;;;;;;2.27;0.97;;;23.30;46.70;;;;;;5050002;28;20176;-69
2022/12/07 09:20:06;;;;;;;2.77;1.00;;;23.30;46.90;;;;;;5039406;28;20199;-68
2022/12/07 09:22:34;;;;;;;1.70;1.07;;;23.30;46.90;;;;;;5038504;28;20187;-69
2022/12/07 09:25:02;;;;;;;5.67;1.10;;;23.20;47.10;;;;;;5038004;28;20599;-69
2022/12/07 09:27:30;;;;;;;3.13;0.90;;;23.20;47.00;;;;;;5036701;28;20195;-69
2022/12/07 09:29:57;;;;;;;1.97;0.97;;;23.20;47.10;;;;;;5048421;28;20176;-69
2022/12/07 09:32:24;;;;;;;4.77;1.03;;;23.10;47.10;;;;;;5052089;28;20550;-69
2022/12/07 09:34:52;;;;;;;0.90;0.80;;;23.10;47.10;;;;;;5056770;28;20232;-69
2022/12/07 09:37:19;;;;;;;2.33;1.50;;;23.10;47.10;;;;;;5045950;28;20177;-68
2022/12/07 09:39:47;;;;;;;1.57;0.90;;;23.10;47.30;;;;;;5043086;28;20215;-68
2022/12/07 09:42:32;;;;;;;5.27;1.37;;;23.00;47.10;;;;;;5052306;28;20182;-68
2022/12/07 09:45:00;;;;;;;2.70;1.00;;;23.00;47.60;;;;;;5050041;28;20543;-69
2022/12/07 09:47:29;;;;;;;2.83;1.10;;;22.90;48.00;;;;;;5038711;28;20176;-68
2022/12/07 09:50:06;;;;;;;2.23;1.00;;;22.90;48.10;;;;;;5036881;28;20198;-69
2022/12/07 09:52:33;;;;;;;1.80;0.83;;;22.90;48.00;;;;;;5037203;28;20204;-68
2022/12/07 09:55:01;;;;;;;1.43;0.90;;;22.80;48.40;;;;;;5034707;28;20180;-68
2022/12/07 09:57:35;;;;;;;1.87;0.90;;;22.80;48.60;;;;;;5034714;28;20188;-69
2022/12/07 10:00:07;;;;;;;1.70;0.80;;;22.80;48.50;;;;;;5049216;28;20179;-68
2022/12/07 10:02:45;;;;;;;3.03;1.00;;;22.80;48.90;;;;;;5043482;28;20176;-68
2022/12/07 10:05:21;;;;;;;1.53;1.13;;;22.80;49.10;;;;;;5038145;28;20250;-69
2022/12/07 10:07:49;;;;;;;2.83;1.07;;;22.70;49.20;;;;;;5034487;28;20172;-68
2022/12/07 10:10:23;;;;;;;1.10;0.80;;;22.70;49.40;;;;;;5039297;28;20187;-68
2022/12/07 10:12:57;;;;;;;2.10;1.00;;;22.70;49.50;;;;;;5035907;28;20183;-69
2022/12/07 10:15:41;;;;;;;1.67;0.87;;;22.70;49.90;;;;;;5034114;28;20220;-68
2022/12/07 10:18:26;;;;;;;1.10;0.80;;;22.60;50.30;;;;;;5036264;28;20185;-69
2022/12/07 10:21:10;;;;;;;3.87;1.10;;;22.50;50.00;;;;;;5034516;28;20176;-69
2022/12/07 10:23:40;;;;;;;2.93;0.97;;;22.60;50.00;;;;;;5045950;28;20643;-70
2022/12/07 10:26:28;;;;;;;2.30;1.30;;;22.50;50.40;;;;;;5050532;28;20218;-70
2022/12/07 10:29:00;;;;;;;1.37;1.07;;;22.50;50.50;;;;;;5037624;28;20259;-69
2022/12/07 10:31:27;;;;;;;3.47;0.93;;;22.50;50.60;;;;;;5041268;28;20643;-69
2022/12/07 10:34:01;;;;;;;1.83;0.80;;;22.40;51.00;;;;;;5034673;28;20591;-69
2022/12/07 10:36:39;;;;;;;1.07;0.90;;;22.40;50.90;;;;;;5041603;28;20262;-68
2022/12/07 10:39:16;;;;;;;2.33;0.80;;;22.50;50.70;;;;;;5042924;28;20278;-69
2022/12/07 10:42:00;;;;;;;1.50;0.70;;;22.50;50.70;;;;;;5046768;28;20268;-69
2022/12/07 10:44:30;;;;;;;1.53;0.90;;;22.50;50.20;;;;;;5033685;28;20587;-68
2022/12/07 10:47:34;;;;;;;2.57;1.30;;;22.50;50.60;;;;;;5033938;28;20181;-70
2022/12/07 10:50:17;;;;;;;2.13;0.80;;;22.50;50.40;;;;;;5044467;28;20179;-69
2022/12/07 10:53:12;;;;;;;1.63;1.13;;;22.50;50.30;;;;;;5041952;28;20176;-69
2022/12/07 10:55:57;;;;;;;2.73;0.90;;;22.50;50.10;;;;;;5034315;28;20202;-70
2022/12/07 10:58:46;;;;;;;1.50;0.90;;;22.50;50.20;;;;;;5041958;28;20196;-69
2022/12/07 11:01:37;;;;;;;1.37;0.83;;;22.60;50.40;;;;;;5034815;28;20176;-68
2022/12/07 11:04:25;;;;;;;1.70;0.90;;;22.50;50.50;;;;;;5036357;28;20185;-69
2022/12/07 11:07:09;;;;;;;2.27;1.17;;;22.50;50.30;;;;;;5033602;28;20230;-69
2022/12/07 11:09:48;;;;;;;2.60;0.90;;;22.50;50.20;;;;;;5033260;28;20204;-67
2022/12/07 11:12:36;;;;;;;0.97;0.80;;;22.50;50.20;;;;;;5033478;28;20180;-68
2022/12/07 11:15:10;;;;;;;4.53;1.00;;;22.50;50.40;;;;;;5039403;28;20623;-68
2022/12/07 11:18:08;;;;;;;1.27;0.80;;;22.50;50.40;;;;;;5037390;28;20165;-69
2022/12/07 11:20:51;;;;;;;1.80;1.00;;;22.50;50.30;;;;;;5033334;28;20260;-70
2022/12/07 11:23:40;;;;;;;2.57;0.90;;;22.50;50.50;;;;;;5044969;28;20176;-69
2022/12/07 11:26:29;;;;;;;2.00;1.13;;;22.50;50.60;;;;;;5033094;28;20184;-69
2022/12/07 11:29:05;;;;;;;3.63;1.30;;;22.50;50.60;;;;;;5037795;28;20306;-67
2022/12/07 11:31:45;;;;;;;2.07;1.00;;;22.50;50.50;;;;;;5046281;28;20538;-69
2022/12/07 11:34:39;;;;;;;1.27;0.73;;;22.50;50.30;;;;;;5033843;28;20243;-68
2022/12/07 11:37:15;;;;;;;2.57;0.80;;;22.40;50.50;;;;;;5039127;28;20172;-67
2022/12/07 11:39:48;;;;;;;3.57;1.00;;;22.40;50.40;;;;;;5050611;28;20186;-70
2022/12/07 11:42:23;;;;;;;2.27;0.83;;;22.40;50.60;;;;;;5046217;28;20181;-67
2022/12/07 11:45:09;;;;;;;3.57;0.93;;;22.30;51.10;;;;;;5032805;28;20191;-69
2022/12/07 11:48:00;;;;;;;3.17;0.90;;;22.30;51.20;;;;;;5038271;28;20176;-69
2022/12/07 11:50:28;;;;;;;4.00;0.87;;;22.30;51.00;;;;;;5036817;28;20238;-67
2022/12/07 11:52:55;;;;;;;1.37;1.07;;;22.30;51.00;;;;;;5031536;28;20236;-67
2022/12/07 11:55:55;;;;;;;1.00;0.90;;;22.30;50.80;;;;;;5035063;28;20203;-69
2022/12/07 11:58:25;;;;;;;1.73;0.70;;;22.30;50.60;;;;;;5034989;28;20185;-69
2022/12/07 12:01:02;;;;;;;2.60;1.07;;;22.30;50.40;;;;;;5035045;28;20647;-69
2022/12/07 12:03:37;;;;;;;0.80;0.70;;;22.30;50.50;;;;;;5037443;28;20199;-68
2022/12/07 12:06:04;;;;;;;2.43;0.80;;;22.30;50.40;;;;;;5043706;28;20644;-70
2022/12/07 12:08:55;;;;;;;1.80;1.20;;;22.10;50.30;;;;;;5042265;28;20211;-68
2022/12/07 12:11:46;;;;;;;2.73;0.87;;;22.10;50.30;;;;;;5050560;28;20643;-69
2022/12/07 12:14:39;;;;;;;2.23;1.10;;;22.00;50.70;;;;;;5043229;28;20183;-68
2022/12/07 12:17:23;;;;;;;2.93;0.90;;;22.00;51.10;;;;;;5028390;28;20184;-68
2022/12/07 12:20:34;;;;;;;4.20;0.83;;;21.90;51.60;;;;;;5035702;28;20639;-68
2022/12/07 12:23:13;;;;;;;2.17;0.70;;;21.80;51.80;;;;;;5034175;28;20275;-68
2022/12/07 12:25:46;;;;;;;2.37;0.87;;;21.80;52.50;;;;;;5043137;28;20620;-68
2022/12/07 12:28:51;;;;;;;1.77;0.90;;;21.60;52.70;;;;;;5040014;28;20261;-69
2022/12/07 12:31:36;;;;;;;2.07;0.97;;;21.60;53.20;;;;;;5040102;28;20172;-69
2022/12/07 12:34:40;;;;;;;2.10;1.00;;;21.50;53.60;;;;;;5038689;28;20169;-68
2022/12/07 12:37:34;;;;;;;1.90;1.07;;;21.40;54.00;;;;;;5051344;28;20188;-69
2022/12/07 12:40:17;;;;;;;1.17;0.93;;;21.30;54.90;;;;;;5038148;28;20192;-68
2022/12/07 12:42:57;;;;;;;3.13;0.90;;;21.30;55.40;;;;;;5039348;28;20594;-69
2022/12/07 12:45:29;;;;;;;1.83;1.03;;;21.30;56.00;;;;;;5032073;28;20180;-69
2022/12/07 12:48:25;;;;;;;2.27;1.00;;;21.30;56.00;;;;;;5032978;28;20215;-69
2022/12/07 12:51:30;;;;;;;2.80;1.17;;;21.30;56.50;;;;;;5049767;28;20215;-69
2022/12/07 12:54:20;;;;;;;1.07;1.00;;;21.20;55.60;;;;;;5035941;28;20183;-69
2022/12/07 12:56:59;;;;;;;3.10;1.33;;;21.30;56.50;;;;;;5039870;28;20177;-69
2022/12/07 12:59:34;;;;;;;2.23;1.03;;;21.20;56.90;;;;;;5033819;28;20187;-69
2022/12/07 13:02:24;;;;;;;2.03;1.23;;;21.20;57.30;;;;;;5049716;28;20175;-69
2022/12/07 13:05:09;;;;;;;3.33;1.20;;;21.10;57.10;;;;;;5053488;28;20191;-68
2022/12/07 13:07:51;;;;;;;3.73;1.30;;;21.10;57.00;;;;;;5049878;28;20603;-68
2022/12/07 13:10:30;;;;;;;1.57;1.00;;;21.10;56.40;;;;;;5052240;28;20239;-69
2022/12/07 13:13:17;;;;;;;2.53;0.87;;;21.00;55.90;;;;;;5047711;28;20215;-69
2022/12/07 13:15:49;;;;;;;3.17;1.07;;;21.00;56.20;;;;;;5049413;28;20184;-69
2022/12/07 13:18:31;;;;;;;2.60;1.30;;;21.00;56.30;;;;;;5035032;28;20172;-69
2022/12/07 13:21:10;;;;;;;1.07;0.90;;;21.00;56.10;;;;;;5041418;28;20722;-68
2022/12/07 13:23:58;;;;;;;2.03;0.93;;;21.00;56.10;;;;;;5035599;28;20543;-68
2022/12/07 13:26:45;;;;;;;1.97;1.10;;;21.00;56.10;;;;;;5043385;28;20193;-68
2022/12/07 13:29:23;;;;;;;1.60;0.90;;;20.90;56.30;;;;;;5044661;28;20360;-69